| Date | Time | Temp. (oF) | Dew Point (oF) | Rel. Hum. (%) | Press. (in.) | Wind Dir. | Wind Speed (mph) | Hourly Rainfall (in.) |
|
|---|---|---|---|---|---|---|---|---|---|
| 1 | 11/21 | 00:00 | 37 | 35 | 93 | 29.99 | W | 0 | 0.00 |
| 2 | 11/20 | 23:00 | 38 | 34 | 87 | 29.99 | WNW | 0 | 0.00 |
| 3 | 11/20 | 22:00 | 41 | 35 | 82 | 29.98 | WNW | 0 | 0.00 |
| 4 | 11/20 | 21:00 | 43 | 35 | 74 | 29.97 | WNW | 1 | 0.00 |
| 5 | 11/20 | 20:00 | 44 | 35 | 72 | 29.97 | WNW | 2 | 0.00 |
| 6 | 11/20 | 19:00 | 45 | 36 | 71 | 29.95 | WNW | 3 | 0.00 |
| 7 | 11/20 | 18:00 | 47 | 36 | 67 | 29.95 | WNW | 3 | 0.00 |
| 8 | 11/20 | 17:00 | 48 | 36 | 64 | 29.93 | NW | 5 | 0.00 |
| 9 | 11/20 | 16:00 | 50 | 36 | 59 | 29.89 | WNW | 9 | 0.00 |
| 10 | 11/20 | 15:00 | 52 | 37 | 57 | 29.87 | WNW | 10 | 0.00 |
| 11 | miss | miss | miss | miss | miss | miss | miss | miss | |
| 12 | 14:57 | 75 | 56 | 52 | 57.00 | 14:58 | 0 | 0.00 | |
| 13 | miss | miss | miss | miss | miss | miss | miss | miss | |
| 14 | 11/20 | 14:35 | 52 | 36 | 56 | 29.87 | WNW | 9 | 0.00 |
| 15 | miss | miss | miss | miss | miss | miss | miss | miss | |
| 16 | 11/20 | 14:33 | 52 | 36 | 56 | 29.87 | W | 8 | 0.00 |
| 17 | miss | miss | miss | miss | miss | miss | miss | miss | |
| 18 | 11/20 | 14:31 | 52 | 36 | 56 | 29.87 | NW | 12 | 0.00 |
| 19 | miss | miss | miss | miss | miss | miss | miss | miss | |
| 20 | 11/20 | 14:26 | 52 | 36 | 56 | 29.87 | W | 17 | 0.00 |
| 21 | miss | miss | miss | miss | miss | miss | miss | miss | |
| 22 | 11/20 | 14:25 | 52 | 36 | 55 | 29.87 | NNW | 11 | 0.00 |
| 23 | miss | miss | miss | miss | miss | miss | miss | miss | |
| 24 | 11/20 | 14:23 | 52 | 36 | 56 | 29.86 | NW | 10 | 0.00 |
| 25 | miss | miss | miss | miss | miss | miss | miss | miss | |
| 26 | 11/20 | 14:22 | 52 | 36 | 56 | 29.87 | WNW | 11 | 0.00 |
| 27 | miss | miss | miss | miss | miss | miss | miss | miss | |
| 28 | 11/20 | 14:22 | 52 | 36 | 56 | 29.87 | WNW | 11 | 0.00 |
| 29 | miss | miss | miss | miss | miss | miss | miss | miss | |
| 30 | 11/20 | 14:22 | 52 | 36 | 56 | 29.87 | WNW | 11 | 0.00 |
| 31 | miss | miss | miss | miss | miss | miss | miss | miss | |
| 32 | 11/20 | 14:22 | 52 | 36 | 56 | 29.87 | WNW | 11 | 0.00 |
| 33 | miss | miss | miss | miss | miss | miss | miss | miss | |
| 34 | 11/20 | 14:22 | 52 | 36 | 56 | 29.87 | WNW | 11 | 0.00 |
| 35 | 11/20 | 13:58 | 52 | 36 | 55 | 29.86 | NW | 12 | 0.00 |
| 36 | 11/20 | 13:00 | 52 | 36 | 55 | 29.86 | NW | 7 | 0.00 |
| 37 | 11/20 | 12:00 | 51 | 35 | 55 | 29.86 | NNW | 13 | 0.00 |
| 38 | 11/20 | 11:00 | 51 | 37 | 61 | 29.87 | NW | 14 | 0.00 |
| 39 | 11/20 | 10:00 | 49 | 36 | 63 | 29.87 | NW | 10 | 0.00 |
| 40 | 11/20 | 09:00 | 48 | 39 | 72 | 29.84 | WNW | 6 | 0.00 |
| 41 | 11/20 | 08:00 | 46 | 39 | 78 | 29.81 | NW | 6 | 0.00 |
| 42 | 11/20 | 07:00 | 45 | 39 | 80 | 29.77 | WNW | 10 | 0.00 |
| 43 | 11/20 | 06:00 | 46 | 40 | 82 | 29.72 | WNW | 7 | 0.00 |
| 44 | 11/20 | 05:00 | 47 | 41 | 81 | 29.68 | W | 10 | 0.00 |
| 45 | 11/20 | 04:00 | 49 | 43 | 81 | 29.65 | WNW | 8 | 0.00 |
| 46 | 11/20 | 03:00 | 49 | 44 | 85 | 29.63 | WNW | 6 | 0.00 |
| 47 | 11/20 | 02:00 | 50 | 47 | 92 | 29.63 | NW | 6 | 0.00 |
| 48 | 11/20 | 01:00 | 49 | 49 | 100 | 29.61 | WNW | 11 | 0.00 |
| 49 | 11/20 | 00:00 | 49 | 49 | 100 | 29.61 | WNW | 5 | 0.00 |
| 50 | 11/19 | 23:00 | 50 | 50 | 100 | 29.60 | NW | 7 | 0.01 |
| 51 | 11/19 | 22:00 | 51 | 50 | 100 | 29.56 | W | 6 | 0.09 |
| 52 | 11/19 | 21:00 | 56 | 55 | 100 | 29.54 | WSW | 6 | 0.03 |
| 53 | 11/19 | 20:00 | 57 | 57 | 100 | 29.53 | SSW | 4 | 0.08 |
| 54 | 11/19 | 19:00 | 57 | 57 | 100 | 29.55 | S | 5 | 0.04 |
| 55 | 11/19 | 18:00 | 57 | 57 | 100 | 29.55 | SSE | 1 | 0.03 |
| 56 | 11/19 | 17:00 | 58 | 58 | 100 | 29.54 | SSW | 0 | 0.13 |
| 57 | 11/19 | 16:00 | 58 | 58 | 100 | 29.57 | S | 7 | 0.20 |
| 58 | 11/19 | 15:00 | 59 | 59 | 100 | 29.53 | SSW | 10 | 0.53 |
| 59 | 11/19 | 14:00 | 66 | 62 | 90 | 29.47 | SSE | 18 | 0.01 |
| 60 | 11/19 | 13:00 | 70 | 63 | 81 | 29.51 | S | 5 | 0.00 |
| 61 | 11/19 | 12:00 | 67 | 63 | 88 | 29.59 | SE | 10 | 0.00 |
| 62 | 11/19 | 11:00 | 66 | 64 | 94 | 29.68 | E | 10 | 0.00 |
| 63 | 11/19 | 10:00 | 66 | 64 | 95 | 29.73 | SE | 13 | 0.00 |
| 64 | 11/19 | 09:00 | 64 | 63 | 100 | 29.79 | SSE | 9 | 0.00 |
| 65 | 11/19 | 08:00 | 62 | 62 | 100 | 29.84 | SE | 9 | 0.00 |
| 66 | 11/19 | 07:00 | 61 | 60 | 100 | 29.88 | SSE | 8 | 0.00 |
| 67 | 11/19 | 06:00 | 60 | 59 | 100 | 29.90 | SE | 9 | 0.00 |
| 68 | 11/19 | 05:00 | 59 | 59 | 100 | 29.93 | SSE | 7 | 0.00 |
| 69 | 11/19 | 04:00 | 58 | 58 | 100 | 29.95 | S | 6 | 0.01 |
| 70 | 11/19 | 03:00 | 58 | 58 | 100 | 29.98 | ESE | 7 | 0.00 |
| 71 | 11/19 | 02:00 | 55 | 54 | 100 | 30.01 | ESE | 4 | 0.00 |
| 72 | 11/19 | 01:00 | 54 | 54 | 100 | 30.02 | ENE | 1 | 0.00 |
| 73 | 11/19 | 00:00 | 54 | 54 | 100 | 30.05 | E | 4 | -1.16 |
| 74 | 11/18 | 23:00 | 53 | 52 | 99 | 30.08 | SE | 10 | 0.00 |